sensor_id;sensor_type;location;lat;lon;timestamp;temperature;humidity
14727;DHT22;7454;51.256;8.176;2023-02-15T00:01:24;1.70;77.50
14727;DHT22;7454;51.256;8.176;2023-02-15T00:03:49;1.70;77.40
14727;DHT22;7454;51.256;8.176;2023-02-15T00:06:16;1.70;77.50
14727;DHT22;7454;51.256;8.176;2023-02-15T00:08:41;1.70;77.70
14727;DHT22;7454;51.256;8.176;2023-02-15T00:11:08;1.70;77.70
14727;DHT22;7454;51.256;8.176;2023-02-15T00:13:35;1.70;77.60
14727;DHT22;7454;51.256;8.176;2023-02-15T00:16:02;1.70;77.60
14727;DHT22;7454;51.256;8.176;2023-02-15T00:18:28;1.70;77.60
14727;DHT22;7454;51.256;8.176;2023-02-15T00:20:54;1.70;77.60
14727;DHT22;7454;51.256;8.176;2023-02-15T00:23:20;1.60;77.50
14727;DHT22;7454;51.256;8.176;2023-02-15T00:25:46;1.60;77.50
14727;DHT22;7454;51.256;8.176;2023-02-15T00:28:12;1.60;77.60
14727;DHT22;7454;51.256;8.176;2023-02-15T00:30:37;1.60;77.70
14727;DHT22;7454;51.256;8.176;2023-02-15T00:33:03;1.60;77.70
14727;DHT22;7454;51.256;8.176;2023-02-15T00:35:28;1.50;77.70
14727;DHT22;7454;51.256;8.176;2023-02-15T00:37:55;1.50;77.70
14727;DHT22;7454;51.256;8.176;2023-02-15T00:40:22;1.60;77.70
14727;DHT22;7454;51.256;8.176;2023-02-15T00:42:47;1.60;77.70
14727;DHT22;7454;51.256;8.176;2023-02-15T00:45:14;1.50;77.70
14727;DHT22;7454;51.256;8.176;2023-02-15T00:47:39;1.60;77.80
14727;DHT22;7454;51.256;8.176;2023-02-15T00:50:05;1.60;77.80
14727;DHT22;7454;51.256;8.176;2023-02-15T00:52:32;1.60;77.60
14727;DHT22;7454;51.256;8.176;2023-02-15T00:54:57;1.60;77.50
14727;DHT22;7454;51.256;8.176;2023-02-15T00:57:23;1.50;77.50
14727;DHT22;7454;51.256;8.176;2023-02-15T00:59:48;1.50;77.40
14727;DHT22;7454;51.256;8.176;2023-02-15T01:02:15;1.50;77.60
14727;DHT22;7454;51.256;8.176;2023-02-15T01:04:40;1.50;77.70
14727;DHT22;7454;51.256;8.176;2023-02-15T01:07:06;1.50;77.80
14727;DHT22;7454;51.256;8.176;2023-02-15T01:09:32;1.50;77.60
14727;DHT22;7454;51.256;8.176;2023-02-15T01:11:58;1.40;77.60
14727;DHT22;7454;51.256;8.176;2023-02-15T01:14:25;1.40;77.40
14727;DHT22;7454;51.256;8.176;2023-02-15T01:16:51;1.40;77.40
14727;DHT22;7454;51.256;8.176;2023-02-15T01:19:16;1.30;77.40
14727;DHT22;7454;51.256;8.176;2023-02-15T01:21:42;1.30;77.30
14727;DHT22;7454;51.256;8.176;2023-02-15T01:24:12;1.30;77.40
14727;DHT22;7454;51.256;8.176;2023-02-15T01:26:38;1.30;77.60
14727;DHT22;7454;51.256;8.176;2023-02-15T01:29:04;1.30;77.80
14727;DHT22;7454;51.256;8.176;2023-02-15T01:31:30;1.30;77.80
14727;DHT22;7454;51.256;8.176;2023-02-15T01:33:56;1.40;78.00
14727;DHT22;7454;51.256;8.176;2023-02-15T01:36:21;1.40;77.90
14727;DHT22;7454;51.256;8.176;2023-02-15T01:38:47;1.50;77.90
14727;DHT22;7454;51.256;8.176;2023-02-15T01:41:13;1.50;77.90
14727;DHT22;7454;51.256;8.176;2023-02-15T01:43:56;1.50;77.80
14727;DHT22;7454;51.256;8.176;2023-02-15T01:46:43;1.50;77.80
14727;DHT22;7454;51.256;8.176;2023-02-15T01:49:16;1.50;77.80
14727;DHT22;7454;51.256;8.176;2023-02-15T01:51:44;1.50;77.50
14727;DHT22;7454;51.256;8.176;2023-02-15T01:54:16;1.40;77.40
14727;DHT22;7454;51.256;8.176;2023-02-15T01:56:44;1.30;77.20
14727;DHT22;7454;51.256;8.176;2023-02-15T01:59:12;1.30;77.40
14727;DHT22;7454;51.256;8.176;2023-02-15T02:01:41;1.20;77.30
14727;DHT22;7454;51.256;8.176;2023-02-15T02:04:17;1.10;77.30
14727;DHT22;7454;51.256;8.176;2023-02-15T02:06:49;1.10;77.40
14727;DHT22;7454;51.256;8.176;2023-02-15T02:09:15;1.10;77.60
14727;DHT22;7454;51.256;8.176;2023-02-15T02:11:41;1.10;77.40
14727;DHT22;7454;51.256;8.176;2023-02-15T02:14:11;1.10;77.40
14727;DHT22;7454;51.256;8.176;2023-02-15T02:16:43;1.10;77.40
14727;DHT22;7454;51.256;8.176;2023-02-15T02:22:27;1.10;77.50
14727;DHT22;7454;51.256;8.176;2023-02-15T02:27:41;1.00;77.40
14727;DHT22;7454;51.256;8.176;2023-02-15T02:33:52;1.00;77.40
14727;DHT22;7454;51.256;8.176;2023-02-15T02:42:25;1.00;77.60
14727;DHT22;7454;51.256;8.176;2023-02-15T02:45:00;1.00;77.70
14727;DHT22;7454;51.256;8.176;2023-02-15T02:47:30;1.10;77.60
14727;DHT22;7454;51.256;8.176;2023-02-15T02:50:02;1.00;77.50
14727;DHT22;7454;51.256;8.176;2023-02-15T02:52:43;1.00;77.50
14727;DHT22;7454;51.256;8.176;2023-02-15T02:55:11;1.00;77.60
14727;DHT22;7454;51.256;8.176;2023-02-15T02:58:05;1.00;77.50
14727;DHT22;7454;51.256;8.176;2023-02-15T03:00:44;1.00;77.50
14727;DHT22;7454;51.256;8.176;2023-02-15T03:03:21;1.00;77.50
14727;DHT22;7454;51.256;8.176;2023-02-15T03:05:52;0.90;77.30
14727;DHT22;7454;51.256;8.176;2023-02-15T03:08:20;0.90;77.30
14727;DHT22;7454;51.256;8.176;2023-02-15T03:10:52;0.80;77.40
14727;DHT22;7454;51.256;8.176;2023-02-15T03:13:19;0.80;77.40
14727;DHT22;7454;51.256;8.176;2023-02-15T03:15:46;0.80;77.40
14727;DHT22;7454;51.256;8.176;2023-02-15T03:18:36;0.80;77.50
14727;DHT22;7454;51.256;8.176;2023-02-15T03:21:06;0.90;77.50
14727;DHT22;7454;51.256;8.176;2023-02-15T03:23:35;0.80;77.50
14727;DHT22;7454;51.256;8.176;2023-02-15T03:26:02;0.80;77.70
14727;DHT22;7454;51.256;8.176;2023-02-15T03:28:41;0.90;77.70
14727;DHT22;7454;51.256;8.176;2023-02-15T03:31:08;0.80;77.40
14727;DHT22;7454;51.256;8.176;2023-02-15T03:33:36;0.80;77.40
14727;DHT22;7454;51.256;8.176;2023-02-15T03:38:43;0.80;77.30
14727;DHT22;7454;51.256;8.176;2023-02-15T03:41:12;0.70;77.40
14727;DHT22;7454;51.256;8.176;2023-02-15T03:43:49;0.70;77.50
14727;DHT22;7454;51.256;8.176;2023-02-15T03:46:25;0.70;77.50
14727;DHT22;7454;51.256;8.176;2023-02-15T03:49:17;0.70;77.40
14727;DHT22;7454;51.256;8.176;2023-02-15T03:51:43;0.70;77.40
14727;DHT22;7454;51.256;8.176;2023-02-15T03:54:13;0.70;77.40
14727;DHT22;7454;51.256;8.176;2023-02-15T03:57:04;0.70;77.30
14727;DHT22;7454;51.256;8.176;2023-02-15T03:59:48;0.70;77.40
14727;DHT22;7454;51.256;8.176;2023-02-15T04:02:41;0.70;77.50
14727;DHT22;7454;51.256;8.176;2023-02-15T04:05:17;0.80;77.80
14727;DHT22;7454;51.256;8.176;2023-02-15T04:07:42;0.70;77.30
14727;DHT22;7454;51.256;8.176;2023-02-15T04:10:08;0.70;77.30
14727;DHT22;7454;51.256;8.176;2023-02-15T04:12:52;0.60;77.20
14727;DHT22;7454;51.256;8.176;2023-02-15T04:15:18;0.60;77.20
14727;DHT22;7454;51.256;8.176;2023-02-15T04:18:02;0.60;77.30
14727;DHT22;7454;51.256;8.176;2023-02-15T04:20:28;0.60;77.50
14727;DHT22;7454;51.256;8.176;2023-02-15T04:23:13;0.60;77.50
14727;DHT22;7454;51.256;8.176;2023-02-15T04:25:57;0.60;77.40
14727;DHT22;7454;51.256;8.176;2023-02-15T04:28:22;0.60;77.40
14727;DHT22;7454;51.256;8.176;2023-02-15T04:30:48;0.60;77.40
14727;DHT22;7454;51.256;8.176;2023-02-15T04:33:14;0.60;77.40
14727;DHT22;7454;51.256;8.176;2023-02-15T04:35:39;0.60;77.50
14727;DHT22;7454;51.256;8.176;2023-02-15T04:38:05;0.70;77.60
14727;DHT22;7454;51.256;8.176;2023-02-15T04:40:30;0.70;77.50
14727;DHT22;7454;51.256;8.176;2023-02-15T04:42:56;0.70;77.50
14727;DHT22;7454;51.256;8.176;2023-02-15T04:45:21;0.60;77.40
14727;DHT22;7454;51.256;8.176;2023-02-15T04:47:47;0.60;77.30
14727;DHT22;7454;51.256;8.176;2023-02-15T04:50:12;0.60;77.30
14727;DHT22;7454;51.256;8.176;2023-02-15T04:52:38;0.50;77.30
14727;DHT22;7454;51.256;8.176;2023-02-15T04:55:04;0.50;77.20
14727;DHT22;7454;51.256;8.176;2023-02-15T04:57:30;0.50;77.30
14727;DHT22;7454;51.256;8.176;2023-02-15T04:59:55;0.50;77.50
14727;DHT22;7454;51.256;8.176;2023-02-15T05:02:22;0.50;77.40
14727;DHT22;7454;51.256;8.176;2023-02-15T05:04:48;0.50;77.20
14727;DHT22;7454;51.256;8.176;2023-02-15T05:07:13;0.50;77.20
14727;DHT22;7454;51.256;8.176;2023-02-15T05:09:40;0.50;77.20
14727;DHT22;7454;51.256;8.176;2023-02-15T05:12:05;0.50;77.20
14727;DHT22;7454;51.256;8.176;2023-02-15T05:14:31;0.40;77.10
14727;DHT22;7454;51.256;8.176;2023-02-15T05:16:56;0.50;77.20
14727;DHT22;7454;51.256;8.176;2023-02-15T05:19:26;0.40;77.30
14727;DHT22;7454;51.256;8.176;2023-02-15T05:21:51;0.30;77.10
14727;DHT22;7454;51.256;8.176;2023-02-15T05:24:17;0.30;77.20
14727;DHT22;7454;51.256;8.176;2023-02-15T05:27:01;0.30;77.30
14727;DHT22;7454;51.256;8.176;2023-02-15T05:29:45;0.30;77.40
14727;DHT22;7454;51.256;8.176;2023-02-15T05:32:12;0.30;77.30
14727;DHT22;7454;51.256;8.176;2023-02-15T05:34:38;0.30;77.30
14727;DHT22;7454;51.256;8.176;2023-02-15T05:37:04;0.30;77.40
14727;DHT22;7454;51.256;8.176;2023-02-15T05:39:29;0.30;77.40
14727;DHT22;7454;51.256;8.176;2023-02-15T05:41:57;0.40;77.50
14727;DHT22;7454;51.256;8.176;2023-02-15T05:44:24;0.40;77.50
14727;DHT22;7454;51.256;8.176;2023-02-15T05:46:50;0.40;77.60
14727;DHT22;7454;51.256;8.176;2023-02-15T05:49:16;0.40;77.60
14727;DHT22;7454;51.256;8.176;2023-02-15T05:51:41;0.40;77.30
14727;DHT22;7454;51.256;8.176;2023-02-15T05:54:07;0.30;77.10
14727;DHT22;7454;51.256;8.176;2023-02-15T05:56:32;0.30;77.20
14727;DHT22;7454;51.256;8.176;2023-02-15T05:58:58;0.30;77.30
14727;DHT22;7454;51.256;8.176;2023-02-15T06:01:24;0.30;77.20
14727;DHT22;7454;51.256;8.176;2023-02-15T06:03:49;0.30;77.20
14727;DHT22;7454;51.256;8.176;2023-02-15T06:06:15;0.30;77.30
14727;DHT22;7454;51.256;8.176;2023-02-15T06:08:41;0.30;77.50
14727;DHT22;7454;51.256;8.176;2023-02-15T06:11:07;0.30;77.60
14727;DHT22;7454;51.256;8.176;2023-02-15T06:13:33;0.40;77.60
14727;DHT22;7454;51.256;8.176;2023-02-15T06:15:59;0.40;77.60
14727;DHT22;7454;51.256;8.176;2023-02-15T06:18:25;0.50;77.60
14727;DHT22;7454;51.256;8.176;2023-02-15T06:20:51;0.50;77.50
14727;DHT22;7454;51.256;8.176;2023-02-15T06:23:16;0.50;77.40
14727;DHT22;7454;51.256;8.176;2023-02-15T06:25:43;0.50;77.50
14727;DHT22;7454;51.256;8.176;2023-02-15T06:28:09;0.50;77.60
14727;DHT22;7454;51.256;8.176;2023-02-15T06:30:35;0.40;77.20
14727;DHT22;7454;51.256;8.176;2023-02-15T06:33:01;0.40;77.30
14727;DHT22;7454;51.256;8.176;2023-02-15T06:35:27;0.40;77.30
14727;DHT22;7454;51.256;8.176;2023-02-15T06:37:52;0.30;77.10
14727;DHT22;7454;51.256;8.176;2023-02-15T06:40:18;0.30;77.10
14727;DHT22;7454;51.256;8.176;2023-02-15T06:42:44;0.30;77.30
14727;DHT22;7454;51.256;8.176;2023-02-15T06:45:10;0.30;77.40
14727;DHT22;7454;51.256;8.176;2023-02-15T06:47:36;0.30;77.30
14727;DHT22;7454;51.256;8.176;2023-02-15T06:50:02;0.30;77.30
14727;DHT22;7454;51.256;8.176;2023-02-15T06:52:29;0.30;77.20
14727;DHT22;7454;51.256;8.176;2023-02-15T06:54:54;0.30;77.30
14727;DHT22;7454;51.256;8.176;2023-02-15T06:57:20;0.30;77.40
14727;DHT22;7454;51.256;8.176;2023-02-15T06:59:46;0.20;77.20
14727;DHT22;7454;51.256;8.176;2023-02-15T07:02:12;0.30;77.30
14727;DHT22;7454;51.256;8.176;2023-02-15T07:04:38;0.30;77.30
14727;DHT22;7454;51.256;8.176;2023-02-15T07:07:03;0.40;77.20
14727;DHT22;7454;51.256;8.176;2023-02-15T07:09:29;0.30;77.10
14727;DHT22;7454;51.256;8.176;2023-02-15T07:11:55;0.20;77.10
14727;DHT22;7454;51.256;8.176;2023-02-15T07:14:39;0.20;77.10
14727;DHT22;7454;51.256;8.176;2023-02-15T07:17:05;0.20;77.10
14727;DHT22;7454;51.256;8.176;2023-02-15T07:19:32;0.20;77.10
14727;DHT22;7454;51.256;8.176;2023-02-15T07:21:57;0.30;77.20
14727;DHT22;7454;51.256;8.176;2023-02-15T07:24:23;0.30;77.10
14727;DHT22;7454;51.256;8.176;2023-02-15T07:26:48;0.20;77.20
14727;DHT22;7454;51.256;8.176;2023-02-15T07:29:14;0.30;77.30
14727;DHT22;7454;51.256;8.176;2023-02-15T07:31:41;0.40;77.30
14727;DHT22;7454;51.256;8.176;2023-02-15T07:34:08;0.30;77.10
14727;DHT22;7454;51.256;8.176;2023-02-15T07:36:34;0.30;77.20
14727;DHT22;7454;51.256;8.176;2023-02-15T07:38:59;0.30;77.50
14727;DHT22;7454;51.256;8.176;2023-02-15T07:41:25;0.40;77.40
14727;DHT22;7454;51.256;8.176;2023-02-15T07:43:51;0.40;77.70
14727;DHT22;7454;51.256;8.176;2023-02-15T07:46:16;0.50;77.60
14727;DHT22;7454;51.256;8.176;2023-02-15T07:48:43;0.50;77.60
14727;DHT22;7454;51.256;8.176;2023-02-15T07:51:09;0.50;77.50
14727;DHT22;7454;51.256;8.176;2023-02-15T07:53:37;0.50;77.50
14727;DHT22;7454;51.256;8.176;2023-02-15T07:56:04;0.50;77.40
14727;DHT22;7454;51.256;8.176;2023-02-15T07:58:31;0.50;77.50
14727;DHT22;7454;51.256;8.176;2023-02-15T08:01:16;0.60;77.60
14727;DHT22;7454;51.256;8.176;2023-02-15T08:03:43;0.50;77.50
14727;DHT22;7454;51.256;8.176;2023-02-15T08:06:08;0.60;77.60
14727;DHT22;7454;51.256;8.176;2023-02-15T08:08:36;0.60;77.80
14727;DHT22;7454;51.256;8.176;2023-02-15T08:11:04;0.80;78.00
14727;DHT22;7454;51.256;8.176;2023-02-15T08:13:58;0.80;77.90
14727;DHT22;7454;51.256;8.176;2023-02-15T08:16:44;0.80;77.90
14727;DHT22;7454;51.256;8.176;2023-02-15T08:19:23;0.90;78.10
14727;DHT22;7454;51.256;8.176;2023-02-15T08:21:54;1.00;78.10
14727;DHT22;7454;51.256;8.176;2023-02-15T08:24:23;1.10;77.90
14727;DHT22;7454;51.256;8.176;2023-02-15T08:26:51;1.20;78.00
14727;DHT22;7454;51.256;8.176;2023-02-15T08:29:18;1.30;78.30
14727;DHT22;7454;51.256;8.176;2023-02-15T08:31:46;1.40;78.30
14727;DHT22;7454;51.256;8.176;2023-02-15T08:34:13;1.40;77.80
14727;DHT22;7454;51.256;8.176;2023-02-15T08:36:41;1.50;78.00
14727;DHT22;7454;51.256;8.176;2023-02-15T08:39:07;1.50;78.00
14727;DHT22;7454;51.256;8.176;2023-02-15T08:41:36;1.60;78.20
14727;DHT22;7454;51.256;8.176;2023-02-15T08:44:04;1.70;78.30
14727;DHT22;7454;51.256;8.176;2023-02-15T08:46:32;1.80;78.30
14727;DHT22;7454;51.256;8.176;2023-02-15T08:49:00;1.80;78.20
14727;DHT22;7454;51.256;8.176;2023-02-15T08:51:26;2.00;78.30
14727;DHT22;7454;51.256;8.176;2023-02-15T08:53:54;2.00;78.20
14727;DHT22;7454;51.256;8.176;2023-02-15T08:56:23;2.10;78.20
14727;DHT22;7454;51.256;8.176;2023-02-15T08:58:52;2.20;78.20
14727;DHT22;7454;51.256;8.176;2023-02-15T09:01:19;2.30;78.20
14727;DHT22;7454;51.256;8.176;2023-02-15T09:03:46;2.40;78.20
14727;DHT22;7454;51.256;8.176;2023-02-15T09:06:14;2.50;78.20
14727;DHT22;7454;51.256;8.176;2023-02-15T09:08:40;2.50;78.20
14727;DHT22;7454;51.256;8.176;2023-02-15T09:11:10;2.50;78.20
14727;DHT22;7454;51.256;8.176;2023-02-15T09:13:52;2.60;78.20
14727;DHT22;7454;51.256;8.176;2023-02-15T09:16:19;2.70;78.30
14727;DHT22;7454;51.256;8.176;2023-02-15T09:18:46;2.70;78.30
14727;DHT22;7454;51.256;8.176;2023-02-15T09:21:13;2.80;78.30
14727;DHT22;7454;51.256;8.176;2023-02-15T09:23:41;2.90;78.40
14727;DHT22;7454;51.256;8.176;2023-02-15T09:26:18;2.90;78.30
14727;DHT22;7454;51.256;8.176;2023-02-15T09:28:44;2.90;78.30
14727;DHT22;7454;51.256;8.176;2023-02-15T09:31:15;3.00;78.40
14727;DHT22;7454;51.256;8.176;2023-02-15T09:33:43;3.00;78.40
14727;DHT22;7454;51.256;8.176;2023-02-15T09:36:16;3.10;78.50
14727;DHT22;7454;51.256;8.176;2023-02-15T09:38:43;3.10;78.40
14727;DHT22;7454;51.256;8.176;2023-02-15T09:49:12;3.30;78.50
14727;DHT22;7454;51.256;8.176;2023-02-15T09:51:55;3.30;78.40
14727;DHT22;7454;51.256;8.176;2023-02-15T09:54:36;3.40;78.30
14727;DHT22;7454;51.256;8.176;2023-02-15T09:57:30;3.40;78.40
14727;DHT22;7454;51.256;8.176;2023-02-15T10:02:56;3.50;78.30
14727;DHT22;7454;51.256;8.176;2023-02-15T10:14:03;3.70;78.50
14727;DHT22;7454;51.256;8.176;2023-02-15T10:16:44;3.80;78.40
14727;DHT22;7454;51.256;8.176;2023-02-15T10:19:49;3.80;78.50
14727;DHT22;7454;51.256;8.176;2023-02-15T10:27:40;4.00;78.40
14727;DHT22;7454;51.256;8.176;2023-02-15T10:30:12;4.10;78.10
14727;DHT22;7454;51.256;8.176;2023-02-15T10:32:52;4.10;77.90
14727;DHT22;7454;51.256;8.176;2023-02-15T10:38:06;4.30;78.10
14727;DHT22;7454;51.256;8.176;2023-02-15T10:40:55;4.30;78.00
14727;DHT22;7454;51.256;8.176;2023-02-15T10:51:58;4.70;77.70
14727;DHT22;7454;51.256;8.176;2023-02-15T10:54:32;4.80;77.50
14727;DHT22;7454;51.256;8.176;2023-02-15T10:57:16;4.90;77.30
14727;DHT22;7454;51.256;8.176;2023-02-15T11:07:58;5.20;76.90
14727;DHT22;7454;51.256;8.176;2023-02-15T11:13:09;5.40;76.80
14727;DHT22;7454;51.256;8.176;2023-02-15T11:15:53;5.50;76.50
14727;DHT22;7454;51.256;8.176;2023-02-15T11:18:39;5.60;76.50
14727;DHT22;7454;51.256;8.176;2023-02-15T11:24:13;5.80;75.70
14727;DHT22;7454;51.256;8.176;2023-02-15T11:29:15;6.20;75.40
14727;DHT22;7454;51.256;8.176;2023-02-15T11:31:57;6.20;75.20
14727;DHT22;7454;51.256;8.176;2023-02-15T11:34:49;6.20;75.10
14727;DHT22;7454;51.256;8.176;2023-02-15T11:37:18;6.30;75.20
14727;DHT22;7454;51.256;8.176;2023-02-15T11:39:46;6.30;75.20
14727;DHT22;7454;51.256;8.176;2023-02-15T11:42:18;6.40;74.90
14727;DHT22;7454;51.256;8.176;2023-02-15T11:47:48;6.60;74.80
14727;DHT22;7454;51.256;8.176;2023-02-15T11:50:15;6.70;74.60
14727;DHT22;7454;51.256;8.176;2023-02-15T11:52:43;6.70;74.70
14727;DHT22;7454;51.256;8.176;2023-02-15T11:55:17;6.80;74.50
14727;DHT22;7454;51.256;8.176;2023-02-15T11:57:46;6.90;74.40
14727;DHT22;7454;51.256;8.176;2023-02-15T12:00:20;6.90;74.30
14727;DHT22;7454;51.256;8.176;2023-02-15T12:02:52;7.00;74.20
14727;DHT22;7454;51.256;8.176;2023-02-15T12:05:20;7.00;74.30
14727;DHT22;7454;51.256;8.176;2023-02-15T12:07:55;7.00;74.20
14727;DHT22;7454;51.256;8.176;2023-02-15T12:10:30;7.00;73.90
14727;DHT22;7454;51.256;8.176;2023-02-15T12:13:08;7.00;73.70
14727;DHT22;7454;51.256;8.176;2023-02-15T12:15:51;7.00;73.90
14727;DHT22;7454;51.256;8.176;2023-02-15T12:18:25;7.10;73.70
14727;DHT22;7454;51.256;8.176;2023-02-15T12:20:59;7.10;73.50
14727;DHT22;7454;51.256;8.176;2023-02-15T12:23:48;7.20;73.30
14727;DHT22;7454;51.256;8.176;2023-02-15T12:26:23;7.20;73.20
14727;DHT22;7454;51.256;8.176;2023-02-15T12:29:00;7.30;73.20
14727;DHT22;7454;51.256;8.176;2023-02-15T12:31:42;7.30;73.20
14727;DHT22;7454;51.256;8.176;2023-02-15T12:34:11;7.30;73.10
14727;DHT22;7454;51.256;8.176;2023-02-15T12:36:48;7.40;73.10
14727;DHT22;7454;51.256;8.176;2023-02-15T12:39:22;7.40;73.00
14727;DHT22;7454;51.256;8.176;2023-02-15T12:44:23;7.50;72.90
14727;DHT22;7454;51.256;8.176;2023-02-15T12:47:04;7.60;72.50
14727;DHT22;7454;51.256;8.176;2023-02-15T12:49:32;7.70;72.40
14727;DHT22;7454;51.256;8.176;2023-02-15T12:52:06;7.70;72.40
14727;DHT22;7454;51.256;8.176;2023-02-15T12:54:49;7.80;72.40
14727;DHT22;7454;51.256;8.176;2023-02-15T12:57:26;7.80;72.30
14727;DHT22;7454;51.256;8.176;2023-02-15T12:59:58;7.90;72.30
14727;DHT22;7454;51.256;8.176;2023-02-15T13:05:17;8.00;72.10
14727;DHT22;7454;51.256;8.176;2023-02-15T13:07:49;8.00;71.90
14727;DHT22;7454;51.256;8.176;2023-02-15T13:13:00;8.00;72.10
14727;DHT22;7454;51.256;8.176;2023-02-15T13:15:31;8.10;72.00
14727;DHT22;7454;51.256;8.176;2023-02-15T13:18:01;8.10;72.00
14727;DHT22;7454;51.256;8.176;2023-02-15T13:20:28;8.10;72.10
14727;DHT22;7454;51.256;8.176;2023-02-15T13:23:37;8.20;72.20
14727;DHT22;7454;51.256;8.176;2023-02-15T13:25:52;8.20;72.10
14727;DHT22;7454;51.256;8.176;2023-02-15T13:28:20;8.30;71.90
14727;DHT22;7454;51.256;8.176;2023-02-15T13:30:48;8.30;71.70
14727;DHT22;7454;51.256;8.176;2023-02-15T13:33:19;8.40;72.10
14727;DHT22;7454;51.256;8.176;2023-02-15T13:41:30;8.60;71.80
14727;DHT22;7454;51.256;8.176;2023-02-15T13:52:27;8.80;71.50
14727;DHT22;7454;51.256;8.176;2023-02-15T13:55:16;8.80;71.70
14727;DHT22;7454;51.256;8.176;2023-02-15T13:57:54;8.90;71.80
14727;DHT22;7454;51.256;8.176;2023-02-15T14:05:49;9.00;71.30
14727;DHT22;7454;51.256;8.176;2023-02-15T14:08:41;9.00;71.50
14727;DHT22;7454;51.256;8.176;2023-02-15T14:14:11;9.00;71.50
14727;DHT22;7454;51.256;8.176;2023-02-15T14:17:14;9.00;71.20
14727;DHT22;7454;51.256;8.176;2023-02-15T14:20:00;9.00;71.30
14727;DHT22;7454;51.256;8.176;2023-02-15T14:22:31;9.00;71.00
14727;DHT22;7454;51.256;8.176;2023-02-15T14:25:15;8.90;71.10
14727;DHT22;7454;51.256;8.176;2023-02-15T14:30:20;9.10;70.70
14727;DHT22;7454;51.256;8.176;2023-02-15T14:32:49;9.10;70.80
14727;DHT22;7454;51.256;8.176;2023-02-15T14:35:21;9.10;70.70
14727;DHT22;7454;51.256;8.176;2023-02-15T14:46:50;9.10;70.40
14727;DHT22;7454;51.256;8.176;2023-02-15T14:49:23;9.00;70.20
14727;DHT22;7454;51.256;8.176;2023-02-15T14:56:42;9.00;69.80
14727;DHT22;7454;51.256;8.176;2023-02-15T15:01:37;8.90;69.70
14727;DHT22;7454;51.256;8.176;2023-02-15T15:04:07;9.00;69.80
14727;DHT22;7454;51.256;8.176;2023-02-15T15:06:36;8.90;69.80
14727;DHT22;7454;51.256;8.176;2023-02-15T15:11:41;8.90;69.50
14727;DHT22;7454;51.256;8.176;2023-02-15T15:14:36;8.90;69.50
14727;DHT22;7454;51.256;8.176;2023-02-15T15:16:56;8.90;69.60
14727;DHT22;7454;51.256;8.176;2023-02-15T15:22:17;8.80;69.40
14727;DHT22;7454;51.256;8.176;2023-02-15T15:33:03;8.80;69.40
14727;DHT22;7454;51.256;8.176;2023-02-15T15:35:36;8.70;69.30
14727;DHT22;7454;51.256;8.176;2023-02-15T15:44:17;8.50;69.60
14727;DHT22;7454;51.256;8.176;2023-02-15T15:49:41;8.40;70.10
14727;DHT22;7454;51.256;8.176;2023-02-15T15:52:16;8.30;70.70
14727;DHT22;7454;51.256;8.176;2023-02-15T15:54:44;8.20;71.10
14727;DHT22;7454;51.256;8.176;2023-02-15T15:57:19;8.10;71.00
14727;DHT22;7454;51.256;8.176;2023-02-15T15:59:51;8.00;71.30
14727;DHT22;7454;51.256;8.176;2023-02-15T16:02:18;8.00;71.40
14727;DHT22;7454;51.256;8.176;2023-02-15T16:04:44;7.90;71.90
14727;DHT22;7454;51.256;8.176;2023-02-15T16:10:06;7.80;72.30
14727;DHT22;7454;51.256;8.176;2023-02-15T16:12:33;7.70;72.30
14727;DHT22;7454;51.256;8.176;2023-02-15T16:15:05;7.70;72.50
14727;DHT22;7454;51.256;8.176;2023-02-15T16:17:40;7.60;72.80
14727;DHT22;7454;51.256;8.176;2023-02-15T16:25:55;7.40;73.30
14727;DHT22;7454;51.256;8.176;2023-02-15T16:28:22;7.30;73.50
14727;DHT22;7454;51.256;8.176;2023-02-15T16:30:54;7.30;73.70
14727;DHT22;7454;51.256;8.176;2023-02-15T16:33:37;7.30;73.80
14727;DHT22;7454;51.256;8.176;2023-02-15T16:36:04;7.20;74.10
14727;DHT22;7454;51.256;8.176;2023-02-15T16:41:08;7.00;74.40
14727;DHT22;7454;51.256;8.176;2023-02-15T16:43:35;7.00;74.40
14727;DHT22;7454;51.256;8.176;2023-02-15T16:46:03;6.90;74.40
14727;DHT22;7454;51.256;8.176;2023-02-15T16:48:30;6.90;74.50
14727;DHT22;7454;51.256;8.176;2023-02-15T16:50:57;6.80;74.60
14727;DHT22;7454;51.256;8.176;2023-02-15T16:53:25;6.80;74.40
14727;DHT22;7454;51.256;8.176;2023-02-15T16:55:56;6.80;74.50
14727;DHT22;7454;51.256;8.176;2023-02-15T16:58:25;6.70;74.50
14727;DHT22;7454;51.256;8.176;2023-02-15T17:00:57;6.70;74.50
14727;DHT22;7454;51.256;8.176;2023-02-15T17:03:24;6.70;74.30
14727;DHT22;7454;51.256;8.176;2023-02-15T17:05:51;6.70;74.30
14727;DHT22;7454;51.256;8.176;2023-02-15T17:08:28;6.60;74.40
14727;DHT22;7454;51.256;8.176;2023-02-15T17:14:27;6.60;74.80
14727;DHT22;7454;51.256;8.176;2023-02-15T17:16:28;6.50;74.60
14727;DHT22;7454;51.256;8.176;2023-02-15T17:18:56;6.50;74.80
14727;DHT22;7454;51.256;8.176;2023-02-15T17:21:25;6.50;74.60
14727;DHT22;7454;51.256;8.176;2023-02-15T17:23:59;6.40;75.00
14727;DHT22;7454;51.256;8.176;2023-02-15T17:26:27;6.40;74.90
14727;DHT22;7454;51.256;8.176;2023-02-15T17:29:11;6.40;74.90
14727;DHT22;7454;51.256;8.176;2023-02-15T17:31:45;6.30;75.10
14727;DHT22;7454;51.256;8.176;2023-02-15T17:34:40;6.30;75.10
14727;DHT22;7454;51.256;8.176;2023-02-15T17:40:01;6.20;75.30
14727;DHT22;7454;51.256;8.176;2023-02-15T17:42:35;6.20;75.50
14727;DHT22;7454;51.256;8.176;2023-02-15T17:45:00;6.10;75.70
14727;DHT22;7454;51.256;8.176;2023-02-15T17:47:26;6.10;75.80
14727;DHT22;7454;51.256;8.176;2023-02-15T17:49:54;6.00;75.60
14727;DHT22;7454;51.256;8.176;2023-02-15T17:52:19;6.00;75.70
14727;DHT22;7454;51.256;8.176;2023-02-15T17:54:45;6.00;75.70
14727;DHT22;7454;51.256;8.176;2023-02-15T17:57:29;5.90;75.60
14727;DHT22;7454;51.256;8.176;2023-02-15T17:59:55;5.90;75.80
14727;DHT22;7454;51.256;8.176;2023-02-15T18:02:40;5.90;75.90
14727;DHT22;7454;51.256;8.176;2023-02-15T18:05:25;5.90;75.80
14727;DHT22;7454;51.256;8.176;2023-02-15T18:08:13;5.90;76.10
14727;DHT22;7454;51.256;8.176;2023-02-15T18:10:58;5.80;76.30
14727;DHT22;7454;51.256;8.176;2023-02-15T18:13:43;5.70;76.30
14727;DHT22;7454;51.256;8.176;2023-02-15T18:16:12;5.60;76.30
14727;DHT22;7454;51.256;8.176;2023-02-15T18:18:39;5.60;76.40
14727;DHT22;7454;51.256;8.176;2023-02-15T18:21:05;5.50;76.30
14727;DHT22;7454;51.256;8.176;2023-02-15T18:23:34;5.40;76.40
14727;DHT22;7454;51.256;8.176;2023-02-15T18:25:59;5.40;76.40
14727;DHT22;7454;51.256;8.176;2023-02-15T18:28:25;5.40;76.40
14727;DHT22;7454;51.256;8.176;2023-02-15T18:30:51;5.30;76.50
14727;DHT22;7454;51.256;8.176;2023-02-15T18:33:36;5.30;76.50
14727;DHT22;7454;51.256;8.176;2023-02-15T18:36:04;5.20;76.40
14727;DHT22;7454;51.256;8.176;2023-02-15T18:39:04;5.20;76.50
14727;DHT22;7454;51.256;8.176;2023-02-15T18:42:03;5.20;76.50
14727;DHT22;7454;51.256;8.176;2023-02-15T18:45:03;5.20;76.50
14727;DHT22;7454;51.256;8.176;2023-02-15T18:48:09;5.20;76.50
14727;DHT22;7454;51.256;8.176;2023-02-15T18:51:21;5.20;76.50
14727;DHT22;7454;51.256;8.176;2023-02-15T19:07:37;5.10;76.60
14727;DHT22;7454;51.256;8.176;2023-02-15T19:10:04;5.00;76.60
14727;DHT22;7454;51.256;8.176;2023-02-15T19:12:31;4.90;76.60
14727;DHT22;7454;51.256;8.176;2023-02-15T19:14:57;5.00;76.60
14727;DHT22;7454;51.256;8.176;2023-02-15T19:17:24;5.00;76.60
14727;DHT22;7454;51.256;8.176;2023-02-15T19:19:50;5.00;76.70
14727;DHT22;7454;51.256;8.176;2023-02-15T19:22:24;5.00;76.70
14727;DHT22;7454;51.256;8.176;2023-02-15T19:24:54;4.90;76.60